X  Schliessen METAR Luftfahrt Wetterdaten     LSZB Bern-Belp Airport
Temperatur
17°C Temperatur
7°C Taupunkt
52% Feuchtigkeit



Wind
10 km/h
6 mph
3 m/s
5 kts



240°
WSW
Aktuelle Wetterlage

Unknown Unknown
Luftdruck 1007.92 (hPa) - 29.76 (inHg)
Sichtweite 6.2 (Meile) - 10 (km)
Flughafen
Flughafen Code LSZB

Position: Bern-Belp Airport
Entfernung: 45 (km)

Metar:
LSZB 221650Z AUTO 24005KT 9999 //////TCU 17/07 Q1008

Zeit: 22-09-2023 18:50 CEST